Time;durP1;ratioP1;P1;durP2;ratioP2;P2;SDS_P1;SDS_P2;PMS_P1;PMS_P2;Temp;Humidity;BMP_temperature;BMP_pressure;BME280_temperature;BME280_humidity;BME280_pressure;Samples;Min_cycle;Max_cycle;Signal;HPM_P1;HPM_P2
2023/04/05 00:01:24;;;;;;;4.03;3.57;;;5.10;1.00;;;;;;5027783;28;20678;-71
2023/04/05 00:03:53;;;;;;;6.27;3.50;;;5.10;1.00;;;;;;5019613;28;20183;-73
2023/04/05 00:06:25;;;;;;;9.30;3.87;;;5.00;1.00;;;;;;5010857;28;20445;-73
2023/04/05 00:08:54;;;;;;;6.00;3.57;;;5.10;1.00;;;;;;5028676;28;20831;-73
2023/04/05 00:11:24;;;;;;;6.80;3.63;;;4.60;1.00;;;;;;5020441;28;20461;-72
2023/04/05 00:13:50;;;;;;;4.90;3.63;;;5.00;1.00;;;;;;5015255;28;20444;-73
2023/04/05 00:16:16;;;;;;;5.13;3.40;;;5.00;1.00;;;;;;5038513;28;20429;-72
2023/04/05 00:18:50;;;;;;;5.70;3.50;;;4.90;1.00;;;;;;5025166;28;20600;-73
2023/04/05 00:21:17;;;;;;;4.93;3.57;;;4.90;1.00;;;;;;5017962;28;20819;-73
2023/04/05 00:23:43;;;;;;;7.90;4.13;;;4.90;1.00;;;;;;5023902;28;20514;-72
2023/04/05 00:26:12;;;;;;;5.70;3.53;;;4.90;1.00;;;;;;5039184;28;20439;-73
2023/04/05 00:28:38;;;;;;;4.90;3.50;;;4.90;1.00;;;;;;5031922;28;20550;-71
2023/04/05 00:31:04;;;;;;;6.23;3.17;;;4.80;1.00;;;;;;5028938;28;20555;-71
2023/04/05 00:33:30;;;;;;;5.87;3.67;;;4.80;1.00;;;;;;5027501;28;20244;-72
2023/04/05 00:35:56;;;;;;;4.60;3.47;;;4.70;1.00;;;;;;5041195;28;20439;-71
2023/04/05 00:38:21;;;;;;;4.40;3.40;;;4.60;1.00;;;;;;5030537;28;20627;-71
2023/04/05 00:40:47;;;;;;;5.20;3.80;;;4.60;1.00;;;;;;5027496;28;20197;-71
2023/04/05 00:43:13;;;;;;;4.30;3.20;;;4.70;1.00;;;;;;5020327;28;20727;-71
2023/04/05 00:45:38;;;;;;;4.63;3.30;;;4.70;1.00;;;;;;5052335;28;20183;-71
2023/04/05 00:48:05;;;;;;;4.40;3.40;;;4.70;1.00;;;;;;5029600;28;20901;-71
2023/04/05 00:50:31;;;;;;;4.90;3.70;;;4.70;1.00;;;;;;5029123;28;20284;-71
2023/04/05 00:52:57;;;;;;;7.23;4.00;;;4.60;1.00;;;;;;5021468;28;20483;-71
2023/04/05 00:55:25;;;;;;;7.30;3.67;;;4.60;1.00;;;;;;5037629;28;20456;-70
2023/04/05 00:57:52;;;;;;;4.70;3.53;;;4.60;1.00;;;;;;5031280;28;20452;-74
2023/04/05 01:00:20;;;;;;;4.63;3.67;;;4.40;1.00;;;;;;5012925;28;20453;-71
2023/04/05 01:02:56;;;;;;;5.00;4.07;;;4.40;1.00;;;;;;5028617;28;20433;-71
2023/04/05 01:05:25;;;;;;;5.53;3.77;;;4.40;1.00;;;;;;5018773;28;20440;-73
2023/04/05 01:08:09;;;;;;;4.90;3.70;;;4.40;1.00;;;;;;5027967;28;20949;-72
2023/04/05 01:10:38;;;;;;;4.33;3.60;;;4.40;1.00;;;;;;5038707;28;21000;-72
2023/04/05 01:13:04;;;;;;;4.90;3.50;;;4.40;1.00;;;;;;5017001;28;20444;-71
2023/04/05 01:15:31;;;;;;;7.40;3.43;;;4.30;1.00;;;;;;5048759;28;20444;-71
2023/04/05 01:18:00;;;;;;;5.07;3.60;;;4.30;1.00;;;;;;5037345;28;20787;-71
2023/04/05 01:20:31;;;;;;;5.20;3.40;;;4.30;1.00;;;;;;5022852;28;20834;-71
2023/04/05 01:23:33;;;;;;;5.83;3.43;;;4.30;1.00;;;;;;5010930;28;21006;-71
2023/04/05 01:26:43;;;;;;;6.07;3.70;;;4.20;1.00;;;;;;5026717;28;20432;-71
2023/04/05 01:29:28;;;;;;;4.80;3.80;;;4.30;1.00;;;;;;4991207;28;20478;-72
2023/04/05 01:32:06;;;;;;;3.90;3.40;;;4.30;1.00;;;;;;4961715;28;20834;-74
2023/04/05 01:34:41;;;;;;;6.53;3.77;;;4.20;1.00;;;;;;5016042;28;20450;-74
2023/04/05 01:37:11;;;;;;;5.33;3.30;;;4.20;1.00;;;;;;5029718;28;20440;-74
2023/04/05 01:39:37;;;;;;;5.40;3.40;;;4.20;1.00;;;;;;5035126;28;20429;-74
2023/04/05 01:42:03;;;;;;;7.00;3.80;;;4.20;1.00;;;;;;5037045;28;20489;-74
2023/04/05 01:44:29;;;;;;;4.50;3.47;;;4.20;1.00;;;;;;5023768;28;20448;-73
2023/04/05 01:46:55;;;;;;;4.97;3.60;;;5.30;1.00;;;;;;5028523;28;21044;-74
2023/04/05 01:49:23;;;;;;;4.90;3.73;;;4.20;1.00;;;;;;5009520;28;20283;-73
2023/04/05 01:51:49;;;;;;;4.97;3.50;;;4.20;1.00;;;;;;5021826;28;20503;-74
2023/04/05 01:54:14;;;;;;;4.73;3.00;;;4.20;1.00;;;;;;5040693;28;20429;-70
2023/04/05 01:56:40;;;;;;;4.70;3.20;;;6.00;1.00;;;;;;5032961;28;20185;-71
2023/04/05 01:59:06;;;;;;;5.80;3.37;;;4.30;1.00;;;;;;5036642;28;20691;-71
2023/04/05 02:01:32;;;;;;;7.67;3.53;;;4.20;1.00;;;;;;5029445;28;20212;-71
2023/04/05 02:03:57;;;;;;;7.17;3.90;;;4.20;1.00;;;;;;5021222;28;20189;-71
2023/04/05 02:06:23;;;;;;;5.27;3.40;;;4.20;1.00;;;;;;5022683;28;20200;-73
2023/04/05 02:08:48;;;;;;;4.70;3.80;;;4.20;1.00;;;;;;5023659;28;20262;-71
2023/04/05 02:11:14;;;;;;;6.03;3.80;;;4.20;1.00;;;;;;5030167;28;20664;-71
2023/04/05 02:13:40;;;;;;;6.93;3.37;;;4.20;1.00;;;;;;5030820;28;20185;-72
2023/04/05 02:16:05;;;;;;;4.30;3.30;;;4.20;1.00;;;;;;5029796;28;20211;-71
2023/04/05 02:18:31;;;;;;;7.00;3.93;;;4.20;1.00;;;;;;5011037;28;20190;-71
2023/04/05 02:21:04;;;;;;;7.43;3.50;;;4.10;1.00;;;;;;5035453;28;20648;-71
2023/04/05 02:23:31;;;;;;;5.37;3.40;;;4.10;1.00;;;;;;5032319;28;20280;-72
2023/04/05 02:25:58;;;;;;;10.03;3.67;;;4.00;1.00;;;;;;5007791;28;20445;-71
2023/04/05 02:28:23;;;;;;;5.10;3.40;;;4.20;1.00;;;;;;5010493;28;20469;-73
2023/04/05 02:30:49;;;;;;;4.70;3.67;;;4.00;1.00;;;;;;5008130;28;20469;-71
2023/04/05 02:33:15;;;;;;;7.27;3.80;;;4.10;1.00;;;;;;5038815;28;20712;-72
2023/04/05 02:35:40;;;;;;;7.00;3.57;;;4.00;1.00;;;;;;5021512;28;20186;-71
2023/04/05 02:38:08;;;;;;;6.47;3.70;;;4.00;1.00;;;;;;5033650;28;20237;-71
2023/04/05 02:40:34;;;;;;;4.10;3.47;;;3.90;1.00;;;;;;5011002;28;20206;-71
2023/04/05 02:43:00;;;;;;;8.00;4.07;;;3.90;1.00;;;;;;5023098;28;20455;-70
2023/04/05 02:45:28;;;;;;;4.67;3.03;;;3.90;1.00;;;;;;5032387;28;20195;-71
2023/04/05 02:47:54;;;;;;;4.80;3.27;;;3.80;1.00;;;;;;5024390;28;20441;-71
2023/04/05 02:50:20;;;;;;;5.57;3.83;;;3.80;1.00;;;;;;5019617;28;20556;-70
2023/04/05 02:52:49;;;;;;;7.30;4.17;;;3.80;1.00;;;;;;5031934;28;20189;-71
2023/04/05 02:55:14;;;;;;;5.13;3.43;;;3.80;1.00;;;;;;5023289;28;20277;-71
2023/04/05 02:57:42;;;;;;;5.27;3.33;;;3.80;1.00;;;;;;5014610;28;20529;-71
2023/04/05 03:00:09;;;;;;;5.50;3.40;;;3.70;1.00;;;;;;5029252;28;20608;-72
2023/04/05 03:02:36;;;;;;;4.63;3.77;;;3.70;1.00;;;;;;5030387;28;20443;-70
2023/04/05 03:05:02;;;;;;;5.50;3.33;;;3.70;1.00;;;;;;5031192;28;20424;-71
2023/04/05 03:07:28;;;;;;;5.27;3.27;;;3.70;1.00;;;;;;5024117;28;20817;-71
2023/04/05 03:09:53;;;;;;;4.20;3.47;;;3.70;1.00;;;;;;5015369;28;20484;-70
2023/04/05 03:12:19;;;;;;;5.20;3.63;;;3.60;1.00;;;;;;5013070;28;20198;-71
2023/04/05 03:14:45;;;;;;;4.40;3.20;;;3.70;1.00;;;;;;5022907;28;20643;-71
2023/04/05 03:17:11;;;;;;;4.57;3.57;;;3.60;1.00;;;;;;5031900;28;20186;-72
2023/04/05 03:19:37;;;;;;;6.70;4.40;;;3.60;1.00;;;;;;5026422;28;20281;-70
2023/04/05 03:22:03;;;;;;;5.47;3.57;;;3.50;1.00;;;;;;5020258;28;20935;-71
2023/04/05 03:24:29;;;;;;;4.73;3.63;;;3.50;1.00;;;;;;5013067;28;20452;-71
2023/04/05 03:26:55;;;;;;;5.40;3.77;;;3.50;1.00;;;;;;5025504;28;20189;-72
2023/04/05 03:29:20;;;;;;;7.73;3.50;;;3.40;1.00;;;;;;5035336;28;20461;-70
2023/04/05 03:31:46;;;;;;;4.90;3.77;;;3.30;1.00;;;;;;5054618;28;20221;-71
2023/04/05 03:34:12;;;;;;;5.40;3.90;;;3.20;1.00;;;;;;5021777;28;20189;-71
2023/04/05 03:36:44;;;;;;;5.70;3.60;;;3.00;1.00;;;;;;5018540;28;20189;-72
2023/04/05 03:39:12;;;;;;;5.80;3.77;;;3.00;1.00;;;;;;5022371;28;20676;-71
2023/04/05 03:41:39;;;;;;;5.53;3.90;;;2.90;1.00;;;;;;5031010;28;20503;-72
2023/04/05 03:44:05;;;;;;;4.80;3.90;;;2.90;1.00;;;;;;5034978;28;20444;-71
2023/04/05 03:46:31;;;;;;;6.73;4.50;;;2.90;1.00;;;;;;5035871;28;20431;-71
2023/04/05 03:48:59;;;;;;;5.30;3.80;;;2.60;1.00;;;;;;5019171;28;20461;-71
2023/04/05 03:51:26;;;;;;;4.97;3.20;;;2.60;1.00;;;;;;5018624;28;20442;-71
2023/04/05 03:53:51;;;;;;;4.13;3.40;;;2.60;1.00;;;;;;5018143;28;20432;-73
2023/04/05 03:56:17;;;;;;;4.43;3.80;;;2.50;1.00;;;;;;5022633;28;20425;-74
2023/04/05 03:58:43;;;;;;;5.07;4.17;;;2.50;1.00;;;;;;5013902;28;20597;-73
2023/04/05 04:01:09;;;;;;;5.70;3.90;;;2.40;1.00;;;;;;5016846;28;20593;-73
2023/04/05 04:03:38;;;;;;;6.27;4.00;;;2.30;1.00;;;;;;5018333;28;20448;-74
2023/04/05 04:06:05;;;;;;;5.37;4.00;;;2.30;1.00;;;;;;5020588;28;20556;-75
2023/04/05 04:08:30;;;;;;;5.40;4.33;;;2.20;1.00;;;;;;5019838;28;20480;-73
2023/04/05 04:10:56;;;;;;;6.57;4.00;;;2.10;1.00;;;;;;5016930;28;20465;-75
2023/04/05 04:13:22;;;;;;;4.83;4.00;;;2.00;1.00;;;;;;5018470;28;20184;-73
2023/04/05 04:15:47;;;;;;;5.23;3.43;;;2.00;1.00;;;;;;5033279;28;20237;-74
2023/04/05 04:18:13;;;;;;;5.60;3.77;;;1.90;1.00;;;;;;5022558;28;20219;-73
2023/04/05 04:20:39;;;;;;;4.97;3.90;;;1.90;1.00;;;;;;5022074;28;20572;-74
2023/04/05 04:23:08;;;;;;;4.30;3.70;;;1.90;1.00;;;;;;5034170;28;20189;-73
2023/04/05 04:25:35;;;;;;;5.03;3.60;;;1.90;1.00;;;;;;5029826;28;20244;-73
2023/04/05 04:28:01;;;;;;;4.23;3.73;;;1.80;1.00;;;;;;5019749;28;20547;-73
2023/04/05 04:30:27;;;;;;;5.70;3.97;;;1.70;1.00;;;;;;5021046;28;20470;-73
2023/04/05 04:32:58;;;;;;;6.60;3.97;;;1.60;1.00;;;;;;5041694;28;20807;-73
2023/04/05 04:35:26;;;;;;;8.63;4.60;;;1.50;1.00;;;;;;5020987;28;20192;-73
2023/04/05 04:38:03;;;;;;;5.23;4.03;;;1.50;1.00;;;;;;5047292;28;20428;-73
2023/04/05 04:40:37;;;;;;;25.83;4.37;;;1.90;1.00;;;;;;5028717;28;20467;-73
2023/04/05 04:43:08;;;;;;;5.57;3.87;;;1.50;1.00;;;;;;5010737;28;20960;-73
2023/04/05 04:45:36;;;;;;;5.80;3.80;;;1.50;1.00;;;;;;5017049;28;21017;-72
2023/04/05 04:48:03;;;;;;;6.87;4.13;;;1.40;1.00;;;;;;5018501;28;20476;-73
2023/04/05 04:50:30;;;;;;;5.80;4.33;;;1.40;1.00;;;;;;5029289;28;20461;-74
2023/04/05 04:52:58;;;;;;;4.83;3.80;;;1.30;1.00;;;;;;5032636;28;20444;-73
2023/04/05 04:55:26;;;;;;;5.50;3.83;;;1.20;1.00;;;;;;5028107;28;20445;-73
2023/04/05 04:57:52;;;;;;;7.60;4.07;;;1.30;1.00;;;;;;5023330;28;20428;-73
2023/04/05 05:00:19;;;;;;;5.67;3.67;;;1.40;1.00;;;;;;5042414;28;20441;-73
2023/04/05 05:02:45;;;;;;;7.53;4.33;;;1.60;1.00;;;;;;5035263;28;20429;-72
2023/04/05 05:05:11;;;;;;;10.17;3.67;;;1.60;1.00;;;;;;5031548;28;20443;-74
2023/04/05 05:07:40;;;;;;;4.50;4.07;;;1.90;1.00;;;;;;5030285;28;20436;-75
2023/04/05 05:10:07;;;;;;;12.00;4.03;;;1.70;1.00;;;;;;5020829;28;20455;-76
2023/04/05 05:12:33;;;;;;;4.10;3.40;;;1.70;1.00;;;;;;5025529;28;20451;-74
2023/04/05 05:14:59;;;;;;;7.63;3.70;;;1.50;1.00;;;;;;5024229;28;20435;-75
2023/04/05 05:17:24;;;;;;;5.30;3.47;;;1.30;1.00;;;;;;5023159;28;20584;-75
2023/04/05 05:19:50;;;;;;;6.93;3.83;;;1.10;1.00;;;;;;5033460;28;20265;-75
2023/04/05 05:22:16;;;;;;;6.07;3.60;;;1.00;1.00;;;;;;5014623;28;20273;-73
2023/04/05 05:24:43;;;;;;;5.43;4.27;;;1.00;1.00;;;;;;5016919;28;20237;-73
2023/04/05 05:27:09;;;;;;;4.70;3.60;;;1.00;1.00;;;;;;5022617;28;20445;-72
2023/04/05 05:29:34;;;;;;;5.80;3.83;;;1.00;1.00;;;;;;5015458;28;20464;-72
2023/04/05 05:32:00;;;;;;;6.83;4.20;;;1.10;1.00;;;;;;5018267;28;20212;-73
2023/04/05 05:34:26;;;;;;;4.53;4.13;;;1.10;1.00;;;;;;5041248;28;20193;-73
2023/04/05 05:36:53;;;;;;;8.57;4.00;;;1.10;1.00;;;;;;5032777;28;20181;-73
2023/04/05 05:39:19;;;;;;;10.40;4.40;;;1.20;1.00;;;;;;5019208;28;20472;-73
2023/04/05 05:41:45;;;;;;;4.67;3.50;;;1.30;1.00;;;;;;5038334;28;20456;-72
2023/04/05 05:44:10;;;;;;;7.07;4.20;;;1.30;1.00;;;;;;5040743;28;20540;-72
2023/04/05 05:46:36;;;;;;;7.90;5.10;;;1.40;1.00;;;;;;5030656;28;20194;-73
2023/04/05 05:49:01;;;;;;;7.57;4.60;;;1.50;1.00;;;;;;5013819;28;20209;-73
2023/04/05 05:51:27;;;;;;;8.60;4.40;;;1.60;1.00;;;;;;5013234;28;20217;-72
2023/04/05 05:53:52;;;;;;;7.23;4.60;;;1.70;1.00;;;;;;5020549;28;20676;-72
2023/04/05 05:56:18;;;;;;;7.70;4.30;;;1.90;1.00;;;;;;5037394;28;20560;-72
2023/04/05 05:58:45;;;;;;;5.90;4.53;;;2.30;1.00;;;;;;5043185;28;20185;-72
2023/04/05 06:01:10;;;;;;;7.47;4.80;;;5.40;1.00;;;;;;5036613;28;20212;-73
2023/04/05 06:03:36;;;;;;;7.03;4.93;;;2.30;1.00;;;;;;5015213;28;20437;-72
2023/04/05 06:06:04;;;;;;;7.80;4.50;;;2.30;1.00;;;;;;5021033;28;20186;-73
2023/04/05 06:08:30;;;;;;;12.97;5.63;;;2.30;1.00;;;;;;5020683;28;21041;-72
2023/04/05 06:10:57;;;;;;;12.40;5.50;;;2.50;1.00;;;;;;5034966;28;20435;-72
2023/04/05 06:13:22;;;;;;;7.70;4.40;;;2.70;1.00;;;;;;5016139;28;20432;-72
2023/04/05 06:15:48;;;;;;;7.90;4.80;;;3.00;1.00;;;;;;5018621;28;20415;-73
2023/04/05 06:18:14;;;;;;;6.17;4.63;;;3.30;1.00;;;;;;5017345;28;20273;-72
2023/04/05 06:20:43;;;;;;;7.60;4.90;;;3.40;1.00;;;;;;5035691;28;20204;-72
2023/04/05 06:26:56;;;;;;;9.30;4.70;;;3.70;1.00;;;;;;5034855;28;20403;-73
2023/04/05 06:29:22;;;;;;;7.73;5.20;;;3.80;1.00;;;;;;5008594;28;20472;-72
2023/04/05 06:31:47;;;;;;;7.13;4.80;;;3.90;1.00;;;;;;5010555;28;20454;-72
2023/04/05 06:34:13;;;;;;;8.83;5.77;;;4.10;1.00;;;;;;5037135;28;20177;-73
2023/04/05 06:36:39;;;;;;;8.80;5.50;;;4.20;1.00;;;;;;5035892;28;20652;-72
2023/04/05 06:39:04;;;;;;;9.50;5.60;;;4.60;1.00;;;;;;5017120;28;20660;-73
2023/04/05 06:41:30;;;;;;;10.37;5.03;;;5.00;1.00;;;;;;5032697;28;20670;-72
2023/04/05 06:43:56;;;;;;;7.80;4.90;;;5.50;1.00;;;;;;5028767;28;20190;-73
2023/04/05 06:46:22;;;;;;;6.47;4.60;;;6.30;1.00;;;;;;5028518;28;20568;-73
2023/04/05 06:48:48;;;;;;;6.57;4.80;;;7.00;1.00;;;;;;5038599;28;20699;-73
2023/04/05 06:51:14;;;;;;;7.80;5.70;;;7.60;1.00;;;;;;5037188;28;20659;-73
2023/04/05 06:53:40;;;;;;;6.43;4.53;;;8.20;1.00;;;;;;5035216;28;20993;-73
2023/04/05 06:56:06;;;;;;;9.20;5.07;;;8.70;1.00;;;;;;5048483;28;20426;-74
2023/04/05 06:58:32;;;;;;;9.97;5.33;;;8.80;1.00;;;;;;5032034;28;20194;-73
2023/04/05 07:00:59;;;;;;;6.10;4.70;;;8.40;1.00;;;;;;5028135;28;20970;-73
2023/04/05 07:03:25;;;;;;;8.20;5.20;;;7.90;1.00;;;;;;5020420;28;20189;-73
2023/04/05 07:05:52;;;;;;;6.87;4.70;;;7.50;1.00;;;;;;5025894;28;20424;-73
2023/04/05 07:08:22;;;;;;;6.03;4.67;;;7.70;1.00;;;;;;5024537;28;20210;-74
2023/04/05 07:10:49;;;;;;;8.33;4.97;;;8.50;1.00;;;;;;5044590;28;20452;-72
2023/04/05 07:13:16;;;;;;;5.70;4.63;;;9.10;1.00;;;;;;5040483;28;20494;-73
2023/04/05 07:15:45;;;;;;;8.63;4.77;;;9.10;1.00;;;;;;5040787;28;20431;-72
2023/04/05 07:18:11;;;;;;;9.70;5.50;;;8.90;1.00;;;;;;5038723;28;20443;-73
2023/04/05 07:20:37;;;;;;;9.50;5.20;;;8.50;1.00;;;;;;5023437;28;20816;-72
2023/04/05 07:23:04;;;;;;;6.77;4.80;;;8.40;1.00;;;;;;5020021;28;20229;-73
2023/04/05 07:25:30;;;;;;;5.53;4.17;;;8.30;1.00;;;;;;5019531;28;20420;-73
2023/04/05 07:27:56;;;;;;;7.10;4.67;;;8.60;1.00;;;;;;5026078;28;20776;-72
2023/04/05 07:30:21;;;;;;;4.57;3.83;;;9.40;1.00;;;;;;5030502;28;20486;-73
2023/04/05 07:32:47;;;;;;;5.30;4.33;;;10.80;1.00;;;;;;5025223;28;20553;-73
2023/04/05 07:35:13;;;;;;;7.30;4.57;;;12.00;1.00;;;;;;5037092;28;20181;-73
2023/04/05 07:37:38;;;;;;;8.03;4.10;;;13.00;1.00;;;;;;5026141;28;20190;-72
2023/04/05 07:40:05;;;;;;;5.77;4.80;;;14.90;1.00;;;;;;5023615;28;20660;-73
2023/04/05 07:42:30;;;;;;;9.87;5.73;;;14.90;1.00;;;;;;5047342;28;20181;-74
2023/04/05 07:44:56;;;;;;;8.53;5.83;;;15.40;1.00;;;;;;5050972;28;20427;-73
2023/04/05 07:47:22;;;;;;;10.77;6.10;;;15.60;1.00;;;;;;5022587;28;20206;-73
2023/04/05 07:49:48;;;;;;;11.60;6.33;;;15.80;1.00;;;;;;5027692;28;20986;-73
2023/04/05 07:52:14;;;;;;;8.53;6.20;;;16.30;1.00;;;;;;5028340;28;20647;-73
2023/04/05 07:54:42;;;;;;;7.60;5.47;;;17.00;1.00;;;;;;5020403;28;20186;-73
2023/04/05 07:57:08;;;;;;;7.10;5.80;;;17.80;1.00;;;;;;5034911;28;20178;-73
2023/04/05 07:59:33;;;;;;;8.30;6.30;;;18.30;1.00;;;;;;5011668;28;20514;-74
2023/04/05 08:01:59;;;;;;;9.20;6.10;;;18.80;1.00;;;;;;5041842;28;20534;-74
2023/04/05 08:04:25;;;;;;;8.07;6.03;;;19.30;1.00;;;;;;5051178;28;20180;-74
2023/04/05 08:06:51;;;;;;;9.47;6.90;;;19.50;1.00;;;;;;5031006;28;20185;-73
2023/04/05 08:09:16;;;;;;;8.50;6.10;;;19.70;1.00;;;;;;5011239;28;20629;-73
2023/04/05 08:11:43;;;;;;;8.40;6.20;;;19.30;1.00;;;;;;5035989;28;20265;-73
2023/04/05 08:14:09;;;;;;;7.53;6.20;;;19.40;1.00;;;;;;5039384;28;20644;-74
2023/04/05 08:16:34;;;;;;;7.10;5.40;;;20.00;1.00;;;;;;5038780;28;20427;-74
2023/04/05 08:19:00;;;;;;;6.90;5.60;;;20.30;1.00;;;;;;5028110;28;20194;-74
2023/04/05 08:21:26;;;;;;;7.33;5.43;;;20.80;1.00;;;;;;5039402;28;20200;-74
2023/04/05 08:23:52;;;;;;;7.40;5.43;;;20.10;1.00;;;;;;5030441;28;20224;-74
2023/04/05 08:26:17;;;;;;;6.87;5.20;;;19.80;1.00;;;;;;5029973;28;20275;-74
2023/04/05 08:28:43;;;;;;;8.67;5.37;;;19.60;1.00;;;;;;5033896;28;20209;-74
2023/04/05 08:31:08;;;;;;;9.20;5.73;;;19.70;1.00;;;;;;5046512;28;20213;-74
2023/04/05 08:33:34;;;;;;;6.20;5.37;;;19.50;1.00;;;;;;5038405;28;20643;-74
2023/04/05 08:36:05;;;;;;;9.87;5.20;;;19.60;1.00;;;;;;5020187;28;20186;-74
2023/04/05 08:38:30;;;;;;;7.90;6.10;;;20.00;1.00;;;;;;5024709;28;20204;-74
2023/04/05 08:41:05;;;;;;;8.00;5.90;;;20.10;1.00;;;;;;5039684;28;20949;-73
2023/04/05 08:43:49;;;;;;;7.80;5.63;;;20.10;1.00;;;;;;5030430;28;20271;-74
2023/04/05 08:46:16;;;;;;;8.43;5.77;;;20.10;1.00;;;;;;5023711;28;20961;-73
2023/04/05 08:48:42;;;;;;;7.40;5.70;;;20.20;1.00;;;;;;5030252;28;20463;-73
2023/04/05 08:51:08;;;;;;;7.10;6.00;;;20.20;1.00;;;;;;5038280;28;20875;-74
2023/04/05 08:53:34;;;;;;;8.50;5.93;;;20.30;1.00;;;;;;5029650;28;20263;-73
2023/04/05 08:56:01;;;;;;;7.03;5.50;;;20.70;1.00;;;;;;5020229;28;20511;-74
2023/04/05 08:58:27;;;;;;;7.20;5.80;;;20.80;1.00;;;;;;5039367;28;20184;-75
2023/04/05 09:00:55;;;;;;;8.40;5.60;;;21.40;1.00;;;;;;5049371;28;20439;-74
2023/04/05 09:03:23;;;;;;;13.73;5.80;;;21.80;1.00;;;;;;5032958;28;20461;-74
2023/04/05 09:05:51;;;;;;;7.13;5.47;;;22.00;1.00;;;;;;5042952;28;20434;-74
2023/04/05 09:08:17;;;;;;;9.10;6.10;;;22.90;1.00;;;;;;5031549;28;20985;-75
2023/04/05 09:10:43;;;;;;;8.20;5.87;;;23.00;1.00;;;;;;5038254;28;20474;-73
2023/04/05 09:13:09;;;;;;;8.23;5.50;;;23.20;1.00;;;;;;5022113;28;20663;-74
2023/04/05 09:15:39;;;;;;;6.50;5.80;;;23.00;1.00;;;;;;5029990;28;20808;-74
2023/04/05 09:18:05;;;;;;;8.03;5.87;;;22.60;1.00;;;;;;5032317;28;21039;-73
2023/04/05 09:20:30;;;;;;;9.10;5.50;;;22.00;1.00;;;;;;5033372;28;20455;-73
2023/04/05 09:22:56;;;;;;;8.57;6.20;;;22.30;1.00;;;;;;5016608;28;20177;-73
2023/04/05 09:25:31;;;;;;;6.90;6.10;;;22.80;1.00;;;;;;5041191;28;20184;-73
2023/04/05 09:28:02;;;;;;;7.27;5.57;;;22.70;1.00;;;;;;5047068;28;20437;-73
2023/04/05 09:30:28;;;;;;;8.30;5.23;;;22.40;1.00;;;;;;5023255;28;20883;-73
2023/04/05 09:32:55;;;;;;;7.07;5.90;;;22.70;1.00;;;;;;5033965;28;20420;-73
2023/04/05 09:35:23;;;;;;;9.23;6.10;;;23.20;1.00;;;;;;5015192;28;20208;-73
2023/04/05 09:38:02;;;;;;;6.70;5.93;;;24.20;1.00;;;;;;5012233;28;20425;-73
2023/04/05 09:40:44;;;;;;;13.27;5.83;;;24.70;1.00;;;;;;5018024;28;20492;-73
2023/04/05 09:43:35;;;;;;;8.70;6.43;;;25.20;1.00;;;;;;5024917;28;20241;-73
2023/04/05 09:46:01;;;;;;;8.90;6.50;;;25.10;1.00;;;;;;5022049;28;20272;-73
2023/04/05 09:48:46;;;;;;;7.60;6.23;;;24.50;1.00;;;;;;5043573;28;20550;-73
2023/04/05 09:51:15;;;;;;;9.90;6.80;;;24.70;1.00;;;;;;5009701;28;20208;-73
2023/04/05 09:53:58;;;;;;;9.00;6.43;;;25.50;1.00;;;;;;5025434;28;20615;-73
2023/04/05 09:56:24;;;;;;;7.20;6.47;;;26.30;1.00;;;;;;5020488;28;20183;-74
2023/04/05 09:58:50;;;;;;;7.40;6.27;;;26.30;1.00;;;;;;5047149;28;20185;-73
2023/04/05 10:01:17;;;;;;;10.70;6.90;;;26.20;1.00;;;;;;5018092;28;20671;-72
2023/04/05 10:03:47;;;;;;;7.70;5.87;;;26.30;1.00;;;;;;5033336;28;20182;-73
2023/04/05 10:06:14;;;;;;;7.23;5.80;;;26.50;1.00;;;;;;5009676;28;20209;-73
2023/04/05 10:08:40;;;;;;;11.02;6.82;;;26.80;1.00;;;;;;5032613;28;20212;-73
2023/04/05 10:11:05;;;;;;;9.13;6.43;;;27.70;1.00;;;;;;5039819;28;20200;-73
2023/04/05 10:13:32;;;;;;;10.20;6.10;;;27.80;1.00;;;;;;5033631;28;20181;-73
2023/04/05 10:16:00;;;;;;;10.10;6.40;;;27.40;1.00;;;;;;5014070;28;20672;-73
2023/04/05 10:18:38;;;;;;;9.32;6.95;;;27.20;1.00;;;;;;5015040;28;20564;-73
2023/04/05 10:21:03;;;;;;;8.33;6.77;;;26.80;1.00;;;;;;5049494;28;20205;-73
2023/04/05 10:23:33;;;;;;;10.73;6.97;;;26.70;1.00;;;;;;5029435;28;20672;-74
2023/04/05 10:26:01;;;;;;;8.10;6.67;;;28.90;1.00;;;;;;5046765;28;20235;-74
2023/04/05 10:28:35;;;;;;;11.05;6.15;;;27.40;1.00;;;;;;5014812;28;20692;-74
2023/04/05 10:31:19;;;;;;;8.65;6.97;;;28.60;1.00;;;;;;5045621;28;20230;-74
2023/04/05 10:33:49;;;;;;;9.65;7.75;;;28.40;1.00;;;;;;5032949;28;20264;-73
2023/04/05 10:36:39;;;;;;;7.88;7.07;;;27.80;1.00;;;;;;5025558;28;20178;-73
2023/04/05 10:39:35;;;;;;;8.27;7.03;;;26.80;1.00;;;;;;5035765;28;20688;-73
2023/04/05 10:42:10;;;;;;;8.18;6.70;;;26.90;1.00;;;;;;5030089;28;20213;-73
2023/04/05 10:44:38;;;;;;;9.57;7.23;;;26.60;1.00;;;;;;5028570;28;20191;-73
2023/04/05 10:47:05;;;;;;;9.00;6.97;;;26.40;1.00;;;;;;5022999;28;20197;-73
2023/04/05 10:49:33;;;;;;;7.43;6.43;;;27.10;1.00;;;;;;5029142;28;20705;-74
2023/04/05 10:52:00;;;;;;;8.23;7.10;;;27.60;1.00;;;;;;5030427;28;20674;-74
2023/04/05 10:54:27;;;;;;;8.80;7.33;;;27.80;1.00;;;;;;5020422;28;20182;-73
2023/04/05 10:56:53;;;;;;;7.73;6.70;;;27.10;1.00;;;;;;5030898;28;20185;-74
2023/04/05 10:59:20;;;;;;;8.17;6.93;;;27.20;1.00;;;;;;5039780;28;20181;-74
2023/04/05 11:01:47;;;;;;;8.40;7.20;;;27.00;1.00;;;;;;5024119;28;20200;-74
2023/04/05 11:04:14;;;;;;;8.50;7.10;;;27.00;1.00;;;;;;5028953;28;20560;-74
2023/04/05 11:06:40;;;;;;;8.48;7.35;;;27.80;1.00;;;;;;5043174;28;20185;-74
2023/04/05 11:09:15;;;;;;;12.10;6.70;;;28.70;1.00;;;;;;5024680;28;20221;-74
2023/04/05 11:11:46;;;;;;;8.75;6.45;;;29.90;1.00;;;;;;5039135;28;20229;-75
2023/04/05 11:14:22;;;;;;;7.45;6.60;;;30.30;1.00;;;;;;5020748;28;20548;-74
2023/04/05 11:16:55;;;;;;;7.90;7.10;;;29.30;1.00;;;;;;5036802;28;20483;-75
2023/04/05 11:19:43;;;;;;;10.13;7.20;;;28.20;1.00;;;;;;5017061;28;20192;-74
2023/04/05 11:22:12;;;;;;;9.55;7.13;;;27.70;1.00;;;;;;5034704;28;20748;-74
2023/04/05 11:25:01;;;;;;;11.00;7.53;;;27.30;1.00;;;;;;5030297;28;20192;-75
2023/04/05 11:27:27;;;;;;;10.90;7.13;;;27.20;1.00;;;;;;5028862;28;20696;-75
2023/04/05 11:29:53;;;;;;;9.67;7.20;;;27.60;1.00;;;;;;5033483;28;20229;-74
2023/04/05 11:32:20;;;;;;;8.57;7.10;;;27.70;1.00;;;;;;5023485;28;20185;-75
2023/04/05 11:35:22;;;;;;;9.00;6.90;;;27.60;1.00;;;;;;5032011;28;20201;-75
2023/04/05 11:37:59;;;;;;;7.40;6.60;;;27.70;1.00;;;;;;5029136;28;20590;-75
2023/04/05 11:40:30;;;;;;;7.75;6.95;;;27.90;1.00;;;;;;5016932;28;20272;-75
2023/04/05 11:43:01;;;;;;;9.20;7.10;;;27.90;1.00;;;;;;5032132;28;21135;-74
2023/04/05 11:45:28;;;;;;;10.90;7.70;;;28.00;1.00;;;;;;5035194;28;20204;-75
2023/04/05 11:47:54;;;;;;;9.73;7.37;;;27.30;1.00;;;;;;5050774;28;20184;-75
2023/04/05 11:50:20;;;;;;;9.67;7.80;;;27.60;1.00;;;;;;5027777;28;20658;-74
2023/04/05 11:53:05;;;;;;;8.87;7.47;;;27.60;1.00;;;;;;5036287;28;20178;-74
2023/04/05 11:55:31;;;;;;;13.60;7.30;;;27.90;1.00;;;;;;5038950;28;20651;-74
2023/04/05 11:57:56;;;;;;;9.17;7.30;;;28.40;1.00;;;;;;5041029;28;20192;-74
2023/04/05 12:00:22;;;;;;;8.80;7.27;;;29.30;1.00;;;;;;5032343;28;20283;-75
2023/04/05 12:02:47;;;;;;;9.17;7.63;;;29.30;1.00;;;;;;5031288;28;20651;-74
2023/04/05 12:05:13;;;;;;;8.30;6.80;;;28.90;1.00;;;;;;5017748;28;20220;-74
2023/04/05 12:07:39;;;;;;;12.48;7.30;;;29.40;1.00;;;;;;5029912;28;20608;-74
2023/04/05 12:10:06;;;;;;;8.20;6.95;;;29.70;1.00;;;;;;5022827;28;20236;-74
2023/04/05 12:12:39;;;;;;;9.05;6.68;;;29.70;1.00;;;;;;5026951;28;20180;-75
2023/04/05 12:15:08;;;;;;;9.63;7.28;;;29.60;1.00;;;;;;5036912;28;20264;-74
2023/04/05 12:17:44;;;;;;;9.90;7.20;;;28.80;1.00;;;;;;5039542;28;20181;-74
2023/04/05 12:20:12;;;;;;;8.95;7.18;;;28.80;1.00;;;;;;5029129;28;20184;-74
2023/04/05 12:22:39;;;;;;;8.43;7.07;;;28.80;1.00;;;;;;5034188;28;20285;-74
2023/04/05 12:25:05;;;;;;;8.85;6.90;;;29.00;1.00;;;;;;5032408;28;20220;-74
2023/04/05 12:27:31;;;;;;;10.15;7.25;;;30.30;1.00;;;;;;5040012;28;20221;-75
2023/04/05 12:30:13;;;;;;;8.70;6.78;;;31.60;1.00;;;;;;5036258;28;20232;-74
2023/04/05 12:32:49;;;;;;;7.05;6.32;;;31.50;1.00;;;;;;5029826;28;20643;-75
2023/04/05 12:35:16;;;;;;;11.20;6.65;;;31.90;1.00;;;;;;5024974;28;20181;-74
2023/04/05 12:37:41;;;;;;;9.35;6.10;;;31.80;1.00;;;;;;5042537;28;20177;-74
2023/04/05 12:40:08;;;;;;;8.57;6.63;;;31.70;1.00;;;;;;5049839;28;20567;-74
2023/04/05 12:42:35;;;;;;;7.05;6.30;;;31.20;1.00;;;;;;5045147;28;20599;-75
2023/04/05 12:45:05;;;;;;;8.02;6.60;;;30.40;1.00;;;;;;5024550;28;20280;-74
2023/04/05 12:47:35;;;;;;;11.93;7.38;;;31.30;1.00;;;;;;5018974;28;20674;-74
2023/04/05 12:50:15;;;;;;;8.57;6.78;;;31.10;1.00;;;;;;5035665;28;20201;-74
2023/04/05 12:53:19;;;;;;;8.70;7.00;;;31.10;1.00;;;;;;5045059;28;20234;-74
2023/04/05 12:55:53;;;;;;;11.35;7.00;;;30.90;1.00;;;;;;5029165;28;20184;-75
2023/04/05 12:58:31;;;;;;;11.90;7.28;;;30.40;1.00;;;;;;5010554;28;20660;-74
2023/04/05 13:00:57;;;;;;;9.15;7.20;;;30.40;1.00;;;;;;5026501;28;20193;-74
2023/04/05 13:03:25;;;;;;;10.85;7.68;;;28.70;1.00;;;;;;5014466;28;20264;-75
2023/04/05 13:05:51;;;;;;;10.02;7.63;;;28.40;1.00;;;;;;5046233;28;20267;-74
2023/04/05 13:08:19;;;;;;;8.03;7.07;;;26.20;1.00;;;;;;5049180;28;20268;-75
2023/04/05 13:10:46;;;;;;;9.13;6.93;;;27.30;1.00;;;;;;5031131;28;20195;-74
2023/04/05 13:13:13;;;;;;;9.40;7.40;;;27.80;1.00;;;;;;5022764;28;20185;-74